createdAt,value
2023-05-10T00:00:06.305Z,14
2023-05-10T00:01:06.497Z,14
2023-05-10T00:02:06.799Z,13.9
2023-05-10T00:03:06.199Z,13.9
2023-05-10T00:04:06.415Z,13.9
2023-05-10T00:05:06.635Z,13.9
2023-05-10T00:06:06.561Z,13.9
2023-05-10T00:07:06.882Z,13.8
2023-05-10T00:08:06.219Z,13.8
2023-05-10T00:09:06.586Z,13
2023-05-10T00:10:06.002Z,13.8
2023-05-10T00:11:06.204Z,13.8
2023-05-10T00:12:05.162Z,13.8
2023-05-10T00:13:06.218Z,13.8
2023-05-10T00:14:06.401Z,13.8
2023-05-10T00:15:06.686Z,13.8
2023-05-10T00:16:06.894Z,13.8
2023-05-10T00:17:06.037Z,13.8
2023-05-10T00:18:06.443Z,13.8
2023-05-10T00:19:06.513Z,13.8
2023-05-10T00:20:06.692Z,13.8
2023-05-10T00:21:06.422Z,13.8
2023-05-10T00:22:06.841Z,13.8
2023-05-10T00:23:06.919Z,13.8
2023-05-10T00:24:06.233Z,13.8
2023-05-10T00:25:06.391Z,13.8
2023-05-10T00:26:06.518Z,13.8
2023-05-10T00:27:06.775Z,13.8
2023-05-10T00:31:06.733Z,13.7
2023-05-10T00:32:06.903Z,13.7
2023-05-10T00:33:06.107Z,13.7
2023-05-10T00:34:06.384Z,13.7
2023-05-10T00:35:06.429Z,13.7
2023-05-10T00:36:06.692Z,13.7
2023-05-10T00:37:06.748Z,13.7
2023-05-10T00:38:05.587Z,13.7
2023-05-10T00:39:06.941Z,13.7
2023-05-10T00:40:06.049Z,13.7
2023-05-10T00:41:05.559Z,13
2023-05-10T00:42:06.678Z,13.7
2023-05-10T00:43:07.091Z,13.7
2023-05-10T00:44:06.068Z,13.7
2023-05-10T00:45:06.566Z,13.7
2023-05-10T00:46:06.805Z,13.7
2023-05-10T00:47:06.950Z,13.7
2023-05-10T00:48:06.063Z,13.7
2023-05-10T00:50:06.629Z,13.7
2023-05-10T00:51:06.888Z,13.7
2023-05-10T00:52:06.055Z,13.7
2023-05-10T00:53:06.123Z,13.7
2023-05-10T00:54:06.533Z,13.7
2023-05-10T00:55:06.757Z,13.8
2023-05-10T00:56:05.984Z,13.8
2023-05-10T00:57:06.548Z,13.8
2023-05-10T00:58:06.696Z,13.8
2023-05-10T00:59:07.068Z,13.8
2023-05-10T01:00:06.044Z,13.8
2023-05-10T01:01:06.432Z,13.8
2023-05-10T01:02:06.689Z,13.8
2023-05-10T01:03:07.135Z,13.8
2023-05-10T01:04:05.999Z,13
2023-05-10T01:05:06.427Z,13.8
2023-05-10T01:06:06.849Z,13
2023-05-10T01:07:06.207Z,13.8
2023-05-10T01:08:06.493Z,13.8
2023-05-10T01:09:06.658Z,13.8
2023-05-10T01:10:06.042Z,13.8
2023-05-10T01:11:06.219Z,13.8
2023-05-10T01:12:06.938Z,13.8
2023-05-10T01:13:06.842Z,13.8
2023-05-10T01:14:06.207Z,13.8
2023-05-10T01:15:06.425Z,13.8
2023-05-10T01:16:06.691Z,13.8
2023-05-10T01:20:06.606Z,13.8
2023-05-10T01:21:06.682Z,13.8
2023-05-10T01:22:06.985Z,13
2023-05-10T01:23:06.136Z,13.8
2023-05-10T01:24:06.461Z,13.8
2023-05-10T01:25:06.842Z,13.8
2023-05-10T01:26:06.889Z,13.8
2023-05-10T01:27:06.057Z,13.8
2023-05-10T01:28:06.445Z,13.8
2023-05-10T01:29:06.716Z,13.8
2023-05-10T01:32:06.538Z,13.8
2023-05-10T01:33:06.632Z,13.8
2023-05-10T01:34:06.681Z,13.8
2023-05-10T01:35:07.026Z,13
2023-05-10T01:36:06.090Z,13
2023-05-10T01:37:05.362Z,13.8
2023-05-10T01:38:06.452Z,13.8
2023-05-10T01:39:06.403Z,13.8
2023-05-10T01:40:06.707Z,13.8
2023-05-10T01:41:06.084Z,13.8
2023-05-10T01:42:06.372Z,13.8
2023-05-10T01:43:06.417Z,13.8
2023-05-10T01:44:06.926Z,13.8
2023-05-10T01:45:06.179Z,13.8
2023-05-10T01:46:06.269Z,13.8
2023-05-10T01:47:06.720Z,13.8
2023-05-10T01:48:07.098Z,13.8
2023-05-10T01:49:06.035Z,13.8
2023-05-10T01:50:06.434Z,13.8
2023-05-10T01:51:06.909Z,13.8
2023-05-10T01:55:07.068Z,13.8
2023-05-10T01:56:06.415Z,13.8
2023-05-10T01:57:06.642Z,13.8
2023-05-10T01:58:07.013Z,13
2023-05-10T01:59:06.980Z,13.8
2023-05-10T02:00:06.329Z,13.7
2023-05-10T02:01:07.299Z,13.7
2023-05-10T02:02:06.791Z,13.8
2023-05-10T02:03:06.370Z,13.8
2023-05-10T02:04:06.344Z,13.8
2023-05-10T02:05:06.679Z,13.7
2023-05-10T02:06:06.006Z,13.7
2023-05-10T02:07:06.339Z,13.8
2023-05-10T02:08:06.699Z,13
2023-05-10T02:09:05.924Z,13
2023-05-10T02:10:06.314Z,13.7
2023-05-10T02:11:06.370Z,13.7
2023-05-10T02:12:06.496Z,13.7
2023-05-10T02:13:06.904Z,13.7
2023-05-10T02:14:06.204Z,13
2023-05-10T02:15:06.448Z,13.7
2023-05-10T02:16:06.421Z,13.7
2023-05-10T02:17:06.444Z,13
2023-05-10T02:18:07.282Z,13.7
2023-05-10T02:19:06.151Z,13.7
2023-05-10T02:20:06.190Z,13.7
2023-05-10T02:21:06.448Z,13.7
2023-05-10T02:22:06.708Z,13.7
2023-05-10T02:23:06.475Z,13.7
2023-05-10T02:24:06.730Z,13.7
2023-05-10T02:25:07.112Z,13.7
2023-05-10T02:26:06.312Z,13.7
2023-05-10T02:27:06.470Z,13.7
2023-05-10T02:28:06.798Z,13.7
2023-05-10T02:29:06.140Z,13.7
2023-05-10T02:30:05.293Z,13.7
2023-05-10T02:31:06.518Z,13.6
2023-05-10T02:32:06.989Z,13.6
2023-05-10T02:35:06.709Z,13.7
2023-05-10T02:36:06.568Z,13.7
2023-05-10T02:37:06.831Z,13.7
2023-05-10T02:38:07.122Z,13.7
2023-05-10T02:39:06.453Z,13.7
2023-05-10T02:40:06.614Z,13.7
2023-05-10T02:41:06.794Z,13.7
2023-05-10T02:42:06.721Z,13.7
2023-05-10T02:43:06.232Z,13.7
2023-05-10T02:44:06.465Z,13.7
2023-05-10T02:45:06.756Z,13
2023-05-10T02:47:06.443Z,13.7
2023-05-10T02:48:06.976Z,13.6
2023-05-10T02:49:06.228Z,13.7
2023-05-10T02:50:06.287Z,13.7
2023-05-10T02:51:06.646Z,13.7
2023-05-10T02:52:06.983Z,13.7
2023-05-10T02:53:05.910Z,13.7
2023-05-10T02:54:06.557Z,13.7
2023-05-10T02:55:06.254Z,13.7
2023-05-10T02:56:06.333Z,13.7
2023-05-10T02:57:06.717Z,13.7
2023-05-10T03:00:07.159Z,13
2023-05-10T03:01:06.260Z,13
2023-05-10T03:02:06.432Z,13.7
2023-05-10T03:03:06.790Z,13.7
2023-05-10T03:04:06.946Z,13.7
2023-05-10T03:05:06.093Z,13.7
2023-05-10T03:06:07.016Z,13.7
2023-05-10T03:07:06.067Z,13.7
2023-05-10T03:08:06.896Z,13.7
2023-05-10T03:09:06.270Z,13
2023-05-10T03:10:06.617Z,13.7
2023-05-10T03:11:06.855Z,13.7
2023-05-10T03:12:06.220Z,13.7
2023-05-10T03:13:06.570Z,13.7
2023-05-10T03:14:06.701Z,13.7
2023-05-10T03:15:07.021Z,13.8
2023-05-10T03:16:06.308Z,13.7
2023-05-10T03:17:06.242Z,13.8
2023-05-10T03:18:06.653Z,13.8
2023-05-10T03:19:06.646Z,13.8
2023-05-10T03:20:05.979Z,13.8
2023-05-10T03:21:06.339Z,13.8
2023-05-10T03:22:06.241Z,13.8
2023-05-10T03:23:05.235Z,13.8
2023-05-10T03:24:06.473Z,13.8
2023-05-10T03:25:06.708Z,13.8
2023-05-10T03:26:06.883Z,13
2023-05-10T03:27:07.163Z,13
2023-05-10T03:28:06.410Z,13.8
2023-05-10T03:29:06.536Z,13.8
2023-05-10T03:30:06.809Z,13.8
2023-05-10T03:31:07.083Z,13.8
2023-05-10T03:32:06.937Z,13.8
2023-05-10T03:34:06.556Z,13.8
2023-05-10T03:35:06.768Z,13.8
2023-05-10T03:36:06.337Z,13.8
2023-05-10T03:37:06.533Z,13.8
2023-05-10T03:38:06.917Z,13.8
2023-05-10T03:39:06.158Z,13.8
2023-05-10T03:40:06.428Z,13.8
2023-05-10T03:44:06.086Z,13.8
2023-05-10T03:45:06.227Z,13
2023-05-10T03:46:06.776Z,13
2023-05-10T03:47:07.142Z,13.8
2023-05-10T03:48:06.736Z,13.8
2023-05-10T03:49:05.802Z,13.8
2023-05-10T03:50:06.861Z,13.7
2023-05-10T03:51:06.916Z,13.7
2023-05-10T03:52:06.867Z,13.7
2023-05-10T03:53:06.164Z,13.7
2023-05-10T03:54:06.402Z,13.8
2023-05-10T03:55:05.473Z,13.7
2023-05-10T03:56:06.812Z,13.7
2023-05-10T03:59:06.542Z,13.7
2023-05-10T04:00:06.600Z,13.7
2023-05-10T04:01:06.731Z,13.7
2023-05-10T04:02:07.126Z,13.7
2023-05-10T04:03:06.162Z,13
2023-05-10T04:04:06.564Z,13.7
2023-05-10T04:05:06.390Z,13.6
2023-05-10T04:06:06.711Z,13.6
2023-05-10T04:08:06.852Z,13.6
2023-05-10T04:09:06.252Z,13.6
2023-05-10T04:10:06.558Z,13.6
2023-05-10T04:11:06.656Z,13
2023-05-10T04:12:07.090Z,13.6
2023-05-10T04:13:06.669Z,13.6
2023-05-10T04:14:06.941Z,13.6
2023-05-10T04:15:06.104Z,13.6
2023-05-10T04:16:05.196Z,13.6
2023-05-10T04:17:06.752Z,13.6
2023-05-10T04:18:08.754Z,13.6
2023-05-10T04:19:05.012Z,13.6
2023-05-10T04:20:06.350Z,13.6
2023-05-10T04:21:06.896Z,13.6
2023-05-10T04:22:06.967Z,13
2023-05-10T04:23:06.868Z,13.6
2023-05-10T04:24:06.187Z,13.6
2023-05-10T04:25:06.735Z,13.6
2023-05-10T04:26:06.460Z,13.6
2023-05-10T04:27:06.845Z,13.6
2023-05-10T04:28:05.818Z,13.6
2023-05-10T04:29:06.503Z,13.6
2023-05-10T04:30:06.933Z,13
2023-05-10T04:31:07.010Z,13.6
2023-05-10T04:32:05.992Z,13.6
2023-05-10T04:33:06.601Z,13.6
2023-05-10T04:34:06.740Z,13.6
2023-05-10T04:35:06.896Z,13
2023-05-10T04:36:06.197Z,13.6
2023-05-10T04:37:06.495Z,13.6
2023-05-10T04:38:06.853Z,13.6
2023-05-10T04:39:06.877Z,13.6
2023-05-10T04:40:06.270Z,13.6
2023-05-10T04:41:06.507Z,13.6
2023-05-10T04:42:06.763Z,13.6
2023-05-10T04:43:05.926Z,13.6
2023-05-10T04:44:06.319Z,13.6
2023-05-10T04:45:06.654Z,13.6
2023-05-10T04:46:06.032Z,13.6
2023-05-10T04:47:06.409Z,13.6
2023-05-10T04:48:06.629Z,13
2023-05-10T04:49:06.859Z,13
2023-05-10T04:50:06.004Z,13.6
2023-05-10T04:51:05.381Z,13.6
2023-05-10T04:52:06.591Z,13.6
2023-05-10T04:53:06.442Z,13.6
2023-05-10T04:54:06.717Z,13.6
2023-05-10T04:55:06.665Z,13.6
2023-05-10T04:57:06.741Z,13.6
2023-05-10T04:58:06.286Z,13.6
2023-05-10T04:59:06.607Z,13.6
2023-05-10T05:00:06.845Z,13.7
2023-05-10T05:01:06.190Z,13.6
2023-05-10T05:02:06.634Z,13.6
2023-05-10T05:03:07.048Z,13.6
2023-05-10T05:04:05.972Z,13.6
2023-05-10T05:05:06.568Z,13.6
2023-05-10T05:06:06.746Z,13.6
2023-05-10T05:07:06.898Z,13.6
2023-05-10T05:08:06.272Z,13.6
2023-05-10T05:09:06.444Z,13.6
2023-05-10T05:10:06.748Z,13.6
2023-05-10T05:11:06.858Z,13.7
2023-05-10T05:15:07.871Z,13.6
2023-05-10T05:16:06.306Z,13.7
2023-05-10T05:17:05.842Z,13.7
2023-05-10T05:18:07.324Z,13.7
2023-05-10T05:19:06.799Z,13
2023-05-10T05:20:06.213Z,13.7
2023-05-10T05:21:06.644Z,13.7
2023-05-10T05:22:06.964Z,13.7
2023-05-10T05:23:06.096Z,13.7
2023-05-10T05:24:06.693Z,13.7
2023-05-10T05:25:06.903Z,13.8
2023-05-10T05:26:06.070Z,13.7
2023-05-10T05:27:06.313Z,13.8
2023-05-10T05:28:06.592Z,13.8
2023-05-10T05:29:06.466Z,13.8
2023-05-10T05:30:06.010Z,13.7
2023-05-10T05:31:06.376Z,13.7
2023-05-10T05:32:06.669Z,13.8
2023-05-10T05:33:06.817Z,13.7
2023-05-10T05:34:06.209Z,13.7
2023-05-10T05:35:06.482Z,13.7
2023-05-10T05:36:06.502Z,13.7
2023-05-10T05:37:06.454Z,13.7
2023-05-10T05:38:06.967Z,13.7
2023-05-10T05:39:05.997Z,13.7
2023-05-10T05:40:06.619Z,13.7
2023-05-10T05:41:06.781Z,13.7
2023-05-10T05:42:06.975Z,13.7
2023-05-10T05:43:06.308Z,13.8
2023-05-10T05:44:06.672Z,13.8
2023-05-10T05:45:06.937Z,13.7
2023-05-10T05:46:07.081Z,13.7
2023-05-10T05:47:05.344Z,13.7
2023-05-10T05:48:06.604Z,13.8
2023-05-10T05:49:06.677Z,13.8
2023-05-10T05:50:06.784Z,13.8
2023-05-10T05:51:09.204Z,13.8
2023-05-10T05:53:06.612Z,13.8
2023-05-10T05:54:06.504Z,13.7
2023-05-10T05:55:06.755Z,13.8
2023-05-10T05:56:06.820Z,13.8
2023-05-10T05:57:05.851Z,13.7
2023-05-10T05:58:06.010Z,13.7
2023-05-10T05:59:06.442Z,13
2023-05-10T06:00:07.007Z,13
2023-05-10T06:01:06.817Z,13.7
2023-05-10T06:02:06.159Z,13.6
2023-05-10T06:03:06.643Z,13.7
2023-05-10T06:04:07.377Z,13.7
2023-05-10T06:05:06.202Z,13.7
2023-05-10T06:06:06.654Z,13.7
2023-05-10T06:07:06.973Z,13.7
2023-05-10T06:08:05.986Z,13.7
2023-05-10T06:09:06.348Z,13.7
2023-05-10T06:10:06.973Z,13.7
2023-05-10T06:11:06.442Z,13.8
2023-05-10T06:12:06.484Z,13.8
2023-05-10T06:13:07.086Z,13.8
2023-05-10T06:18:06.411Z,13.7
2023-05-10T06:19:06.484Z,13.7
2023-05-10T06:20:06.146Z,13.7
2023-05-10T06:21:07.026Z,13.7
2023-05-10T06:22:06.197Z,13.8
2023-05-10T06:23:06.489Z,13.8
2023-05-10T06:24:06.773Z,13.7
2023-05-10T06:25:06.134Z,13.7
2023-05-10T06:26:06.326Z,13.7
2023-05-10T06:27:06.722Z,13.7
2023-05-10T06:28:06.854Z,13.7
2023-05-10T06:29:07.008Z,13.7
2023-05-10T06:30:15.041Z,13.8
2023-05-10T06:32:06.865Z,13.7
2023-05-10T06:33:06.354Z,13.7
2023-05-10T06:34:06.423Z,13.7
2023-05-10T06:35:06.638Z,13.7
2023-05-10T06:36:06.743Z,13.7
2023-05-10T06:37:06.129Z,13.8
2023-05-10T06:38:06.254Z,13.8
2023-05-10T06:39:06.216Z,13.7
2023-05-10T06:40:06.589Z,13.7
2023-05-10T06:41:06.725Z,13.7
2023-05-10T06:42:06.309Z,13.8
2023-05-10T06:43:05.055Z,13.7
2023-05-10T06:44:06.518Z,13.7
2023-05-10T06:45:06.715Z,13.7
2023-05-10T06:46:06.903Z,13.7
2023-05-10T06:47:06.131Z,13.7
2023-05-10T06:48:06.783Z,13.7
2023-05-10T06:50:06.254Z,13.7
2023-05-10T06:51:06.468Z,13.7
2023-05-10T06:52:05.072Z,13.7
2023-05-10T06:53:06.853Z,13.8
2023-05-10T06:54:06.081Z,13.8
2023-05-10T06:55:06.205Z,13.7
2023-05-10T06:56:06.735Z,13.8
2023-05-10T06:57:19.739Z,13.7
2023-05-10T06:59:06.711Z,13.8
2023-05-10T07:00:06.145Z,13.8
2023-05-10T07:01:06.553Z,13.8
2023-05-10T07:02:06.237Z,13.8
2023-05-10T07:03:06.323Z,13.8
2023-05-10T07:04:07.010Z,13.8
2023-05-10T07:07:06.144Z,13.8
2023-05-10T07:08:06.436Z,13.8
2023-05-10T07:09:07.042Z,13.8
2023-05-10T07:10:06.502Z,13.8
2023-05-10T07:11:06.561Z,13.8
2023-05-10T07:12:07.928Z,13.8
2023-05-10T07:13:06.784Z,13.8
2023-05-10T07:15:06.252Z,13.8
2023-05-10T07:16:06.618Z,13.8
2023-05-10T07:17:06.840Z,13.8
2023-05-10T07:18:07.262Z,13.9
2023-05-10T07:19:06.083Z,13.9
2023-05-10T07:20:06.408Z,13.8
2023-05-10T07:21:06.948Z,13.8
2023-05-10T07:22:05.970Z,13.9
2023-05-10T07:23:06.300Z,13.9
2023-05-10T07:24:06.673Z,13.9
2023-05-10T07:25:06.871Z,13.9
2023-05-10T07:28:06.077Z,13.9
2023-05-10T07:29:06.654Z,13.8
2023-05-10T07:30:06.606Z,13.9
2023-05-10T07:31:06.851Z,13.9
2023-05-10T07:32:06.079Z,13.9
2023-05-10T07:33:06.165Z,13.8
2023-05-10T07:34:06.744Z,13.8
2023-05-10T07:36:05.121Z,13.8
2023-05-10T07:37:06.308Z,13.9
2023-05-10T07:38:06.670Z,13.9
2023-05-10T07:39:06.998Z,13.8
2023-05-10T07:40:06.121Z,13.8
2023-05-10T07:41:06.691Z,13.8
2023-05-10T07:42:06.659Z,13.9
2023-05-10T07:43:06.865Z,13.8
2023-05-10T07:44:05.940Z,13.8
2023-05-10T07:45:06.585Z,13.8
2023-05-10T07:48:06.404Z,13.9
2023-05-10T07:49:06.553Z,13.9
2023-05-10T07:50:06.819Z,13.9
2023-05-10T07:51:06.094Z,13.9
2023-05-10T07:52:06.272Z,13.9
2023-05-10T07:53:07.020Z,13.9
2023-05-10T07:54:06.301Z,13.9
2023-05-10T07:55:06.784Z,13.9
2023-05-10T07:56:06.407Z,13.9
2023-05-10T07:57:06.579Z,13.8
2023-05-10T07:58:06.860Z,13.8
2023-05-10T08:01:06.199Z,14
2023-05-10T08:02:06.506Z,14
2023-05-10T08:03:06.507Z,13
2023-05-10T08:04:07.554Z,13
2023-05-10T08:05:06.288Z,14
2023-05-10T08:06:06.166Z,14
2023-05-10T08:07:06.342Z,14
2023-05-10T08:08:06.347Z,14
2023-05-10T08:09:06.113Z,13
2023-05-10T08:10:06.568Z,14
2023-05-10T08:11:06.925Z,14
2023-05-10T08:12:06.072Z,14.1
2023-05-10T08:13:06.281Z,14.1
2023-05-10T08:14:06.553Z,14.1
2023-05-10T08:15:06.952Z,14.1
2023-05-10T08:16:06.745Z,14.2
2023-05-10T08:17:06.134Z,14.2
2023-05-10T08:18:06.960Z,14.2
2023-05-10T08:19:06.414Z,14.3
2023-05-10T08:20:06.318Z,14.3
2023-05-10T08:21:06.701Z,14.3
2023-05-10T08:22:06.501Z,14.2
2023-05-10T08:23:06.781Z,14.3
2023-05-10T08:24:06.061Z,14.3
2023-05-10T08:25:06.086Z,14.4
2023-05-10T08:26:05.990Z,14.4
2023-05-10T08:27:06.560Z,14.4
2023-05-10T08:28:05.926Z,14.4
2023-05-10T08:29:06.310Z,14.5
2023-05-10T08:30:06.716Z,14.5
2023-05-10T08:31:06.753Z,14.5
2023-05-10T08:32:06.854Z,14.6
2023-05-10T08:33:06.263Z,14.6
2023-05-10T08:34:06.631Z,14.7
2023-05-10T08:35:06.932Z,14.8
2023-05-10T08:36:06.336Z,14.8
2023-05-10T08:37:06.925Z,14.8
2023-05-10T08:38:06.247Z,14.9
2023-05-10T08:39:09.334Z,14.9
2023-05-10T08:40:06.669Z,15
2023-05-10T08:41:07.061Z,15.1
2023-05-10T08:42:06.107Z,15.2
2023-05-10T08:43:06.301Z,15.2
2023-05-10T08:44:06.430Z,15.2
2023-05-10T08:45:06.813Z,15.5
2023-05-10T08:46:07.052Z,15.5
2023-05-10T08:47:06.050Z,15.6
2023-05-10T08:48:06.381Z,15.6
2023-05-10T08:49:06.691Z,15.7
2023-05-10T08:50:06.403Z,15.8
2023-05-10T08:51:06.770Z,15.8
2023-05-10T08:52:06.112Z,15.8
2023-05-10T08:53:06.314Z,15.9
2023-05-10T08:54:06.459Z,16
2023-05-10T08:59:06.377Z,16.1
2023-05-10T09:00:06.804Z,16.1
2023-05-10T09:01:07.010Z,16.2
2023-05-10T09:02:06.135Z,16.4
2023-05-10T09:03:06.468Z,16.4
2023-05-10T09:04:06.998Z,16.5
2023-05-10T09:05:07.118Z,16.6
2023-05-10T09:06:06.067Z,16.7
2023-05-10T09:07:06.613Z,16.8
2023-05-10T09:08:06.768Z,16
2023-05-10T09:09:05.956Z,16.9
2023-05-10T09:10:06.417Z,17
2023-05-10T09:11:06.790Z,17
2023-05-10T09:12:06.126Z,17.2
2023-05-10T09:13:06.152Z,17.2
2023-05-10T09:14:06.780Z,17.2
2023-05-10T09:15:06.723Z,17.4
2023-05-10T09:16:22.712Z,17.4
2023-05-10T09:18:06.822Z,17.6
2023-05-10T09:19:07.019Z,17.6
2023-05-10T09:20:06.098Z,17.6
2023-05-10T09:21:05.897Z,17.5
2023-05-10T09:22:06.188Z,17.4
2023-05-10T09:26:06.020Z,16.9
2023-05-10T09:27:06.574Z,16.9
2023-05-10T09:28:06.921Z,16.8
2023-05-10T09:29:07.099Z,16.7
2023-05-10T09:30:06.086Z,16.6
2023-05-10T09:31:06.640Z,16.5
2023-05-10T09:32:06.910Z,16.5
2023-05-10T09:33:05.968Z,16.4
2023-05-10T09:34:06.493Z,15
2023-05-10T09:35:06.853Z,16.3
2023-05-10T09:36:07.026Z,16.3
2023-05-10T09:37:06.130Z,16.3
2023-05-10T09:38:06.557Z,16.2
2023-05-10T09:39:06.813Z,16.2
2023-05-10T09:40:06.006Z,16.2
2023-05-10T09:41:06.190Z,16.1
2023-05-10T09:42:06.590Z,16
2023-05-10T09:43:06.555Z,15.9
2023-05-10T09:44:06.111Z,15.9
2023-05-10T09:45:06.263Z,15.8
2023-05-10T09:46:06.565Z,15.7
2023-05-10T09:47:06.861Z,15.7
2023-05-10T09:50:06.120Z,15.6
2023-05-10T09:51:06.642Z,15.6
2023-05-10T09:52:07.146Z,15.6
2023-05-10T09:53:06.210Z,15.6
2023-05-10T09:54:06.406Z,15.6
2023-05-10T09:55:06.309Z,15.6
2023-05-10T09:56:06.977Z,15.7
2023-05-10T09:57:06.044Z,15.7
2023-05-10T09:58:06.471Z,15.7
2023-05-10T09:59:06.801Z,15.8
2023-05-10T10:04:06.153Z,16.6
2023-05-10T10:05:06.736Z,16.6
2023-05-10T10:07:06.768Z,16.9
2023-05-10T10:08:06.857Z,17
2023-05-10T10:10:06.189Z,17.1
2023-05-10T10:11:06.367Z,17.1
2023-05-10T10:12:06.624Z,17.1
2023-05-10T10:13:07.051Z,17.1
2023-05-10T10:14:06.082Z,17
2023-05-10T10:15:06.324Z,16.9
2023-05-10T10:16:06.921Z,16.9
2023-05-10T10:17:12.213Z,16.8
2023-05-10T10:19:07.021Z,16.7
2023-05-10T10:20:05.522Z,16.6
2023-05-10T10:21:06.168Z,16.5
2023-05-10T10:22:06.645Z,16.5
2023-05-10T10:24:06.983Z,16.3
2023-05-10T10:25:06.452Z,16.2
2023-05-10T10:29:06.571Z,16.1
2023-05-10T10:30:06.725Z,16.1
2023-05-10T10:31:07.116Z,16
2023-05-10T10:32:06.403Z,16
2023-05-10T10:33:28.249Z,16
2023-05-10T10:35:06.775Z,16
2023-05-10T10:36:06.998Z,16
2023-05-10T10:37:06.022Z,16
2023-05-10T10:38:06.290Z,16
2023-05-10T10:39:06.642Z,16.1
2023-05-10T10:41:06.131Z,16.1
2023-05-10T10:42:06.434Z,16.2
2023-05-10T10:43:06.184Z,16.3
2023-05-10T10:44:06.496Z,16.4
2023-05-10T10:45:06.927Z,14
2023-05-10T10:46:06.067Z,16.5
2023-05-10T10:47:06.578Z,16.5
2023-05-10T10:48:06.960Z,16.5
2023-05-10T10:49:06.032Z,16.6
2023-05-10T10:50:06.589Z,16.7
2023-05-10T10:51:06.618Z,16.7
2023-05-10T10:52:06.787Z,16.7
2023-05-10T10:53:06.566Z,16.8
2023-05-10T10:54:06.641Z,16.8
2023-05-10T10:55:06.159Z,16.8
2023-05-10T10:56:06.190Z,16.8
2023-05-10T10:57:06.339Z,15
2023-05-10T10:58:06.845Z,17
2023-05-10T10:59:07.035Z,17
2023-05-10T11:00:06.172Z,17
2023-05-10T11:01:06.619Z,16.9
2023-05-10T11:02:06.783Z,16.9
2023-05-10T11:03:07.047Z,16.9
2023-05-10T11:04:06.372Z,16.9
2023-05-10T11:05:06.620Z,16.9
2023-05-10T11:06:06.772Z,16.9
2023-05-10T11:07:06.952Z,16.9
2023-05-10T11:08:06.082Z,16.9
2023-05-10T11:09:06.154Z,16.9
2023-05-10T11:13:05.596Z,16.9
2023-05-10T11:14:06.474Z,17
2023-05-10T11:15:06.773Z,17
2023-05-10T11:16:06.504Z,17
2023-05-10T11:17:06.785Z,17
2023-05-10T11:18:06.059Z,17.1
2023-05-10T11:19:06.650Z,17.1
2023-05-10T11:20:06.533Z,17.1
2023-05-10T11:21:06.935Z,17.1
2023-05-10T11:22:06.193Z,17.2
2023-05-10T11:23:06.402Z,17.2
2023-05-10T11:24:07.070Z,17.4
2023-05-10T11:25:06.902Z,17.4
2023-05-10T11:26:06.527Z,17.5
2023-05-10T11:27:06.932Z,17.6
2023-05-10T11:28:05.979Z,17.6
2023-05-10T11:29:06.190Z,17.6
2023-05-10T11:30:07.264Z,17.7
2023-05-10T11:31:06.647Z,17.8
2023-05-10T11:32:06.701Z,15
2023-05-10T11:34:05.244Z,18
2023-05-10T11:35:06.529Z,18
2023-05-10T11:36:06.298Z,18
2023-05-10T11:37:05.248Z,18
2023-05-10T11:38:06.458Z,18
2023-05-10T11:39:06.668Z,18
2023-05-10T11:40:07.074Z,18
2023-05-10T11:41:06.621Z,18
2023-05-10T11:42:06.873Z,18
2023-05-10T11:43:06.087Z,18.1
2023-05-10T11:44:06.118Z,18.1
2023-05-10T11:45:06.758Z,16
2023-05-10T11:46:06.980Z,18.3
2023-05-10T11:47:07.024Z,18.4
2023-05-10T11:48:06.470Z,18.5
2023-05-10T11:49:06.671Z,18.5
2023-05-10T11:50:06.800Z,18.6
2023-05-10T11:51:06.130Z,18.6
2023-05-10T11:52:06.267Z,18.6
2023-05-10T11:53:06.649Z,18.7
2023-05-10T11:54:05.918Z,18.7
2023-05-10T11:55:06.099Z,18.6
2023-05-10T11:56:06.358Z,18.6
2023-05-10T11:57:06.428Z,18.6
2023-05-10T11:58:06.753Z,18.6
2023-05-10T11:59:06.873Z,18.7
2023-05-10T12:00:06.146Z,18.8
2023-05-10T12:01:06.350Z,18.8
2023-05-10T12:02:06.844Z,18.8
2023-05-10T12:03:06.902Z,18.8
2023-05-10T12:04:06.178Z,18.9
2023-05-10T12:05:06.611Z,19
2023-05-10T12:06:06.758Z,19
2023-05-10T12:07:06.950Z,19
2023-05-10T12:08:06.063Z,18
2023-05-10T12:09:06.229Z,19.2
2023-05-10T12:10:06.493Z,19.3
2023-05-10T12:11:06.560Z,19.6
2023-05-10T12:12:07.001Z,19.6
2023-05-10T12:13:06.111Z,19.8
2023-05-10T12:14:06.350Z,19.8
2023-05-10T12:15:06.403Z,19.9
2023-05-10T12:16:06.921Z,19.9
2023-05-10T12:17:06.031Z,19.8
2023-05-10T12:18:06.226Z,19.7
2023-05-10T12:19:06.742Z,19.7
2023-05-10T12:20:06.318Z,19.6
2023-05-10T12:25:06.232Z,19.6
2023-05-10T12:26:06.525Z,19.6
2023-05-10T12:27:06.922Z,19.5
2023-05-10T12:28:06.137Z,17
2023-05-10T12:29:06.417Z,19.4
2023-05-10T12:30:06.723Z,19.3
2023-05-10T12:31:06.864Z,19.3
2023-05-10T12:32:06.125Z,19.2
2023-05-10T12:33:06.534Z,19.2
2023-05-10T12:34:06.511Z,19.2
2023-05-10T12:35:06.854Z,19.1
2023-05-10T12:36:06.184Z,19.1
2023-05-10T12:37:06.561Z,19.1
2023-05-10T12:38:06.691Z,19
2023-05-10T12:39:06.884Z,19
2023-05-10T12:40:06.339Z,19
2023-05-10T12:41:05.906Z,18.8
2023-05-10T12:42:06.783Z,18.8
2023-05-10T12:44:05.842Z,18.7
2023-05-10T12:45:06.692Z,18.6
2023-05-10T12:46:07.080Z,18.6
2023-05-10T12:47:06.225Z,18.6
2023-05-10T12:48:06.708Z,18.6
2023-05-10T12:49:13.691Z,18.6
2023-05-10T12:51:06.467Z,18.4
2023-05-10T12:52:06.741Z,18.4
2023-05-10T12:53:06.737Z,18.4
2023-05-10T12:54:06.165Z,18.2
2023-05-10T12:55:06.368Z,18.2
2023-05-10T12:56:06.634Z,18
2023-05-10T12:57:06.801Z,18
2023-05-10T12:58:06.084Z,18
2023-05-10T12:59:06.569Z,18
2023-05-10T13:00:06.923Z,17.8
2023-05-10T13:01:06.432Z,17.8
2023-05-10T13:02:06.643Z,17.7
2023-05-10T13:03:07.141Z,17.7
2023-05-10T13:04:06.306Z,17.6
2023-05-10T13:05:05.572Z,17.6
2023-05-10T13:06:06.408Z,17.6
2023-05-10T13:07:06.832Z,17.6
2023-05-10T13:10:06.306Z,17.5
2023-05-10T13:11:06.584Z,17.4
2023-05-10T13:12:08.782Z,17.4
2023-05-10T13:13:06.111Z,17.4
2023-05-10T13:14:06.062Z,17.3
2023-05-10T13:15:06.601Z,17.3
2023-05-10T13:20:06.310Z,17.1
2023-05-10T13:21:06.429Z,17.1
2023-05-10T13:22:06.474Z,17
2023-05-10T13:23:06.556Z,16.9
2023-05-10T13:24:06.175Z,16.9
2023-05-10T13:25:06.244Z,16.9
2023-05-10T13:26:06.358Z,16.8
2023-05-10T13:27:06.650Z,16.8
2023-05-10T13:28:06.759Z,16.8
2023-05-10T13:29:06.150Z,16.8
2023-05-10T13:30:06.974Z,16.6
2023-05-10T13:31:06.149Z,16.6
2023-05-10T13:32:06.282Z,16.6
2023-05-10T13:33:06.830Z,16.6
2023-05-10T13:40:06.365Z,16.4
2023-05-10T13:41:06.712Z,16.3
2023-05-10T13:42:06.950Z,16.2
2023-05-10T13:43:06.490Z,16.2
2023-05-10T13:44:06.702Z,16.2
2023-05-10T13:45:07.035Z,16.2
2023-05-10T13:46:07.011Z,16.2
2023-05-10T13:49:06.652Z,16
2023-05-10T13:50:07.076Z,16
2023-05-10T13:51:06.180Z,16
2023-05-10T13:52:05.605Z,15.9
2023-05-10T13:53:07.007Z,15.9
2023-05-10T13:54:06.165Z,15.9
2023-05-10T13:55:05.236Z,15.8
2023-05-10T13:56:06.524Z,15.7
2023-05-10T13:57:06.481Z,15.7
2023-05-10T13:58:05.983Z,15.6
2023-05-10T13:59:06.222Z,15.6
2023-05-10T14:00:06.649Z,15.6
2023-05-10T14:04:06.110Z,15.1
2023-05-10T14:05:06.253Z,14.8
2023-05-10T14:06:06.460Z,14.1
2023-05-10T14:07:06.824Z,13.9
2023-05-10T14:08:06.099Z,13.7
2023-05-10T14:09:06.223Z,13.7
2023-05-10T14:10:06.359Z,13.5
2023-05-10T14:11:06.349Z,13.5
2023-05-10T14:12:05.781Z,13.4
2023-05-10T14:13:06.191Z,12
2023-05-10T14:14:06.458Z,13.3
2023-05-10T14:15:05.747Z,13.3
2023-05-10T14:16:07.183Z,13.2
2023-05-10T14:17:07.019Z,13.2
2023-05-10T14:19:07.142Z,13.2
2023-05-10T14:20:06.702Z,13.1
2023-05-10T14:21:06.116Z,13.1
2023-05-10T14:22:06.305Z,13
2023-05-10T14:23:06.723Z,12.9
2023-05-10T14:24:06.820Z,12.9
2023-05-10T14:25:06.156Z,12
2023-05-10T14:26:06.598Z,12.8
2023-05-10T14:27:06.825Z,12
2023-05-10T14:28:06.387Z,12.8
2023-05-10T14:29:06.842Z,12.8
2023-05-10T14:30:07.025Z,12.8
2023-05-10T14:31:06.116Z,12
2023-05-10T14:32:06.561Z,12
2023-05-10T14:33:06.777Z,12.8
2023-05-10T14:34:06.884Z,12.8
2023-05-10T14:35:06.203Z,12.8
2023-05-10T14:36:05.432Z,12.8
2023-05-10T14:37:06.489Z,12.8
2023-05-10T14:38:06.666Z,12.8
2023-05-10T14:39:06.957Z,12.8
2023-05-10T14:40:06.662Z,12.8
2023-05-10T14:41:06.784Z,12
2023-05-10T14:42:06.080Z,12
2023-05-10T14:43:06.360Z,12.7
2023-05-10T14:44:06.359Z,12.7
2023-05-10T14:45:06.916Z,12.7
2023-05-10T14:46:06.883Z,12.7
2023-05-10T14:47:06.145Z,12.8
2023-05-10T14:48:06.447Z,12.7
2023-05-10T14:49:06.447Z,12.7
2023-05-10T14:50:06.776Z,12.7
2023-05-10T14:51:06.808Z,12.8
2023-05-10T14:52:06.230Z,12.8
2023-05-10T14:53:06.500Z,12.7
2023-05-10T14:54:06.861Z,12
2023-05-10T14:55:06.074Z,12.8
2023-05-10T14:56:06.314Z,12.7
2023-05-10T14:57:06.383Z,12.7
2023-05-10T14:58:06.605Z,12.7
2023-05-10T14:59:06.240Z,12.7
2023-05-10T15:00:06.516Z,12.7
2023-05-10T15:01:07.669Z,12.7
2023-05-10T15:02:06.695Z,12.8